Portada
METAR-TAF:

METAR-TAF

Aeroports :

Sankt Gallen, Suïssa

latitud: 47-29-06N, longitud: 009-33-43E, altitud: 398 m

Observació

L'informe es va fer fa 12 minuts, a les 00:20 UTC
Vent 3 kt del Est/Nord-Est
Temperatura -1°C
Humitat 100%
Pressió 1022 hPa
Visibilitat: 2200 m
Cel ennuvolat a una alçada de 100 ft
boira gebradora

METAR: LSZR 060020Z AUTO 07003KT 2200 FZFG BKN001 M01/M01 Q1022

Hora: 01:32 (00:32 UTC)

Pronòstic

L'informe es va fer fa 5 hores i 28 minuts, a les 19:04 UTC
Pronòstic vàlid del 05 a les 19 UTC al 05 a les 24 UTC
Vent 3 kt amb direcció variable
Visibilitat: 4500 m
Cel cobert a una alçada de 500 ft
boirina
Evolucionant progressivament
l' 05 a les 19 UTC al 05 a les 22 UTC
Visibilitat: 2000 m
Cel cobert a una alçada de 300 ft
Probabilitat 40%
l' 05 a les 22 UTC al 05 a les 24 UTC
Visibilitat: 0600 m
a una alçada de 200 ft
boira gebradora

TAF: LSZR 051904Z 0519/0524 VRB03KT 4500 BR OVC005 BECMG 0519/0522 2000 OVC003 PROB40 0522/0524 0600 FZFG VV002

Observacions i pronòstics meteorològics de més de 4000 aeroports (METAR i TAF).

Les estacions disponibles són els punts grocs i vermells al mapa.

Posi el ratolí al punt desitjat per veure el nom de l'estació.

Feu clic per veure les observacions i els pronòstics meteorològics.

Per canviar el mapa: feu clic els botons verds amb una creu de color negre per apropar; al botó verd amb un guió per allunyar la imatge; o en les fletxes verdes per a mapes adjacents.


METAR-TAF: